createdAt,value
2019-03-02T00:00:11.923Z,0
2019-03-02T00:01:23.086Z,0
2019-03-02T00:02:33.947Z,0
2019-03-02T00:03:44.593Z,0
2019-03-02T00:04:56.305Z,0
2019-03-02T00:06:08.090Z,0
2019-03-02T00:07:20.952Z,0
2019-03-02T00:08:32.389Z,0
2019-03-02T00:09:44.179Z,0
2019-03-02T00:10:55.148Z,0
2019-03-02T00:12:06.232Z,0
2019-03-02T00:13:16.922Z,0
2019-03-02T00:14:28.879Z,0
2019-03-02T00:15:40.415Z,0
2019-03-02T00:16:52.720Z,0
2019-03-02T00:18:04.817Z,0
2019-03-02T00:19:16.463Z,0
2019-03-02T00:20:27.771Z,0
2019-03-02T00:21:40.776Z,0
2019-03-02T00:22:53.254Z,0
2019-03-02T00:24:03.967Z,0
2019-03-02T00:25:13.947Z,0
2019-03-02T00:26:23.891Z,0
2019-03-02T00:27:33.846Z,0
2019-03-02T00:28:45.156Z,0
2019-03-02T00:29:56.012Z,0
2019-03-02T00:31:07.516Z,0
2019-03-02T00:32:19.065Z,0
2019-03-02T00:33:29.757Z,0
2019-03-02T00:34:41.361Z,0
2019-03-02T00:35:53.335Z,0
2019-03-02T00:37:05.749Z,0
2019-03-02T00:38:18.481Z,0
2019-03-02T00:39:29.428Z,0
2019-03-02T00:40:41.119Z,0
2019-03-02T00:41:51.810Z,0
2019-03-02T00:43:01.894Z,0
2019-03-02T00:44:13.440Z,0
2019-03-02T00:45:24.861Z,0
2019-03-02T00:46:34.811Z,0
2019-03-02T00:47:45.791Z,0
2019-03-02T00:48:56.576Z,0
2019-03-02T00:50:10.306Z,0
2019-03-02T00:51:20.818Z,0
2019-03-02T00:52:33.059Z,0
2019-03-02T00:53:45.145Z,0
2019-03-02T00:55:05.523Z,0
2019-03-02T00:56:17.353Z,0
2019-03-02T00:57:28.282Z,0
2019-03-02T00:58:39.337Z,0
2019-03-02T00:59:49.402Z,0
2019-03-02T01:01:02.783Z,0
2019-03-02T01:02:14.908Z,0
2019-03-02T01:03:25.381Z,0
2019-03-02T01:04:36.065Z,0
2019-03-02T01:05:46.756Z,0
2019-03-02T01:06:58.057Z,0
2019-03-02T01:08:09.494Z,0
2019-03-02T01:09:22.239Z,0
2019-03-02T01:10:32.863Z,0
2019-03-02T01:11:43.720Z,0
2019-03-02T01:12:54.835Z,0
2019-03-02T01:14:06.191Z,0
2019-03-02T01:15:18.051Z,0
2019-03-02T01:16:29.601Z,0
2019-03-02T01:17:41.032Z,0
2019-03-02T01:18:52.028Z,0
2019-03-02T01:20:03.190Z,0
2019-03-02T01:21:14.509Z,0
2019-03-02T01:22:26.131Z,0
2019-03-02T01:23:37.181Z,0
2019-03-02T01:24:48.608Z,0
2019-03-02T01:25:59.320Z,0
2019-03-02T01:27:09.903Z,0
2019-03-02T01:28:20.233Z,0
2019-03-02T01:29:30.176Z,0
2019-03-02T01:30:40.515Z,0
2019-03-02T01:31:51.089Z,0
2019-03-02T01:33:02.430Z,0
2019-03-02T01:34:15.633Z,0
2019-03-02T01:35:27.187Z,0
2019-03-02T01:36:40.503Z,0
2019-03-02T01:37:53.542Z,0
2019-03-02T01:39:04.205Z,0
2019-03-02T01:40:15.446Z,0
2019-03-02T01:41:27.456Z,0
2019-03-02T01:42:39.327Z,0
2019-03-02T01:43:50.843Z,0
2019-03-02T01:45:01.039Z,0
2019-03-02T01:46:13.066Z,0
2019-03-02T01:47:26.297Z,0
2019-03-02T01:48:37.453Z,0
2019-03-02T01:49:47.121Z,0
2019-03-02T01:50:58.410Z,0
2019-03-02T01:52:08.391Z,0
2019-03-02T01:53:19.525Z,0
2019-03-02T01:54:30.705Z,0
2019-03-02T01:55:41.328Z,0
2019-03-02T01:56:52.207Z,0
2019-03-02T01:58:02.574Z,0
2019-03-02T01:59:13.552Z,0
2019-03-02T02:00:24.121Z,0
2019-03-02T02:01:35.351Z,0
2019-03-02T02:02:45.561Z,0
2019-03-02T02:03:56.822Z,0
2019-03-02T02:05:07.846Z,0
2019-03-02T02:06:18.075Z,0
2019-03-02T02:07:28.906Z,0
2019-03-02T02:08:39.512Z,0
2019-03-02T02:09:50.243Z,0
2019-03-02T02:11:00.191Z,0
2019-03-02T02:12:09.917Z,0
2019-03-02T02:13:19.931Z,0
2019-03-02T02:14:29.873Z,0
2019-03-02T02:15:39.981Z,0
2019-03-02T02:16:51.441Z,0
2019-03-02T02:18:02.355Z,0
2019-03-02T02:19:12.648Z,0
2019-03-02T02:20:24.174Z,0
2019-03-02T02:21:36.255Z,0
2019-03-02T02:22:47.547Z,0
2019-03-02T02:23:59.477Z,0
2019-03-02T02:25:10.201Z,0
2019-03-02T02:26:20.486Z,0
2019-03-02T02:27:32.941Z,0
2019-03-02T02:28:43.044Z,0
2019-03-02T02:29:53.870Z,0
2019-03-02T02:31:12.428Z,0
2019-03-02T02:32:30.628Z,0
2019-03-02T02:33:47.479Z,0
2019-03-02T02:35:05.445Z,0
2019-03-02T02:36:22.947Z,0
2019-03-02T02:37:41.231Z,0
2019-03-02T02:38:58.836Z,0
2019-03-02T02:40:15.087Z,0
2019-03-02T02:41:32.086Z,0
2019-03-02T02:42:47.855Z,0
2019-03-02T02:44:05.707Z,0
2019-03-02T02:45:21.642Z,0
2019-03-02T02:46:39.421Z,0
2019-03-02T02:47:59.302Z,0
2019-03-02T02:49:15.041Z,0
2019-03-02T02:50:33.995Z,0
2019-03-02T02:51:51.282Z,0
2019-03-02T02:53:08.795Z,0
2019-03-02T02:54:25.381Z,0
2019-03-02T02:55:42.807Z,0
2019-03-02T02:56:58.573Z,0
2019-03-02T02:58:12.460Z,0
2019-03-02T02:59:26.883Z,0
2019-03-02T03:00:38.214Z,0
2019-03-02T03:01:47.910Z,0
2019-03-02T03:02:57.637Z,0
2019-03-02T03:04:09.271Z,0
2019-03-02T03:05:22.620Z,0
2019-03-02T03:06:37.580Z,0
2019-03-02T03:07:58.389Z,0
2019-03-02T03:09:16.210Z,0
2019-03-02T03:10:32.928Z,0
2019-03-02T03:11:50.952Z,0
2019-03-02T03:13:09.150Z,0
2019-03-02T03:14:26.456Z,0
2019-03-02T03:15:43.783Z,0
2019-03-02T03:16:59.012Z,0
2019-03-02T03:18:17.471Z,0
2019-03-02T03:19:35.250Z,0
2019-03-02T03:20:53.286Z,0
2019-03-02T03:22:11.642Z,0
2019-03-02T03:23:29.006Z,0
2019-03-02T03:24:44.971Z,0
2019-03-02T03:26:03.287Z,0
2019-03-02T03:27:18.298Z,0
2019-03-02T03:28:35.083Z,0
2019-03-02T03:29:52.168Z,0
2019-03-02T03:31:02.407Z,0
2019-03-02T03:32:21.174Z,0
2019-03-02T03:33:47.112Z,0
2019-03-02T03:34:57.352Z,0
2019-03-02T03:36:07.339Z,0
2019-03-02T03:37:22.242Z,0
2019-03-02T03:38:36.641Z,0
2019-03-02T03:39:51.326Z,0
2019-03-02T03:41:09.296Z,0
2019-03-02T03:42:27.303Z,0
2019-03-02T03:43:46.934Z,0
2019-03-02T03:44:59.692Z,0
2019-03-02T03:46:17.683Z,0
2019-03-02T03:47:33.955Z,0
2019-03-02T03:48:44.238Z,0
2019-03-02T03:49:53.677Z,0
2019-03-02T03:51:03.428Z,0
2019-03-02T03:52:18.859Z,0
2019-03-02T03:53:36.747Z,0
2019-03-02T03:54:52.806Z,0
2019-03-02T03:56:10.678Z,0
2019-03-02T03:57:26.655Z,0
2019-03-02T03:58:42.610Z,0
2019-03-02T04:00:00.689Z,0
2019-03-02T04:01:19.547Z,0
2019-03-02T04:02:37.229Z,0
2019-03-02T04:03:51.604Z,0
2019-03-02T04:05:10.433Z,0
2019-03-02T04:06:23.288Z,0
2019-03-02T04:07:37.147Z,0
2019-03-02T04:08:47.133Z,0
2019-03-02T04:09:57.895Z,0
2019-03-02T04:11:13.670Z,0
2019-03-02T04:12:29.386Z,0
2019-03-02T04:13:49.283Z,0
2019-03-02T04:15:05.798Z,0
2019-03-02T04:16:20.528Z,0
2019-03-02T04:17:38.972Z,0
2019-03-02T04:18:58.375Z,0
2019-03-02T04:20:16.514Z,0
2019-03-02T04:21:34.749Z,0
2019-03-02T04:22:49.777Z,0
2019-03-02T04:24:08.203Z,0
2019-03-02T04:25:26.349Z,0
2019-03-02T04:26:44.029Z,0
2019-03-02T04:28:01.050Z,0
2019-03-02T04:29:21.717Z,0
2019-03-02T04:30:40.357Z,0
2019-03-02T04:31:57.510Z,0
2019-03-02T04:33:14.942Z,0
2019-03-02T04:34:30.038Z,0
2019-03-02T04:35:43.587Z,0
2019-03-02T04:36:56.781Z,0
2019-03-02T04:38:10.420Z,0
2019-03-02T04:39:23.458Z,0
2019-03-02T04:40:38.043Z,0
2019-03-02T04:41:48.974Z,0
2019-03-02T04:42:59.671Z,0
2019-03-02T04:44:09.608Z,0
2019-03-02T04:45:19.549Z,0
2019-03-02T04:46:29.223Z,0
2019-03-02T04:47:39.161Z,0
2019-03-02T04:48:49.581Z,0
2019-03-02T04:50:01.034Z,0
2019-03-02T04:51:12.237Z,0
2019-03-02T04:52:24.134Z,0
2019-03-02T04:53:35.390Z,0
2019-03-02T04:54:47.268Z,0
2019-03-02T04:55:58.301Z,0
2019-03-02T04:57:09.356Z,0
2019-03-02T04:58:21.661Z,0
2019-03-02T04:59:32.298Z,0
2019-03-02T05:00:42.379Z,0
2019-03-02T05:01:55.484Z,0
2019-03-02T05:03:05.443Z,0
2019-03-02T05:04:15.388Z,0
2019-03-02T05:05:25.321Z,0
2019-03-02T05:06:35.251Z,0
2019-03-02T05:07:45.027Z,0
2019-03-02T05:08:54.984Z,0
2019-03-02T05:10:05.023Z,0
2019-03-02T05:11:14.954Z,0
2019-03-02T05:12:24.823Z,0
2019-03-02T05:13:37.833Z,0
2019-03-02T05:14:49.829Z,0
2019-03-02T05:16:01.940Z,0
2019-03-02T05:17:14.575Z,0
2019-03-02T05:18:27.698Z,0
2019-03-02T05:19:38.489Z,0
2019-03-02T05:20:50.694Z,0
2019-03-02T05:22:00.381Z,0
2019-03-02T05:23:10.313Z,0
2019-03-02T05:24:20.248Z,0
2019-03-02T05:25:30.179Z,0
2019-03-02T05:26:40.130Z,0
2019-03-02T05:27:49.810Z,0
2019-03-02T05:28:59.495Z,0
2019-03-02T05:30:09.435Z,0
2019-03-02T05:31:21.068Z,0
2019-03-02T05:32:31.036Z,0
2019-03-02T05:33:40.735Z,0
2019-03-02T05:34:50.694Z,0
2019-03-02T05:36:01.042Z,0
2019-03-02T05:37:12.623Z,0
2019-03-02T05:38:24.607Z,0
2019-03-02T05:39:34.306Z,0
2019-03-02T05:40:43.993Z,0
2019-03-02T05:41:55.634Z,0
2019-03-02T05:43:05.590Z,0
2019-03-02T05:44:15.065Z,0
2019-03-02T05:45:29.426Z,0
2019-03-02T05:46:39.113Z,0
2019-03-02T05:47:49.087Z,0
2019-03-02T05:48:58.270Z,0
2019-03-02T05:50:07.954Z,0
2019-03-02T05:51:17.657Z,0
2019-03-02T05:52:28.260Z,0
2019-03-02T05:53:39.866Z,0
2019-03-02T05:54:51.218Z,0
2019-03-02T05:56:03.446Z,0
2019-03-02T05:57:14.485Z,0
2019-03-02T05:58:26.390Z,0
2019-03-02T05:59:37.130Z,0
2019-03-02T06:00:48.242Z,0
2019-03-02T06:01:58.041Z,0
2019-03-02T06:03:07.994Z,0
2019-03-02T06:04:21.996Z,0
2019-03-02T06:05:31.864Z,0
2019-03-02T06:06:41.619Z,0
2019-03-02T06:07:53.755Z,5
2019-03-02T06:09:03.925Z,5
2019-03-02T06:10:16.120Z,5
2019-03-02T06:11:25.816Z,5
2019-03-02T06:12:35.509Z,5
2019-03-02T06:13:45.466Z,5
2019-03-02T06:14:55.420Z,5
2019-03-02T06:16:05.363Z,5
2019-03-02T06:17:15.055Z,5
2019-03-02T06:18:24.982Z,5
2019-03-02T06:19:34.916Z,10
2019-03-02T06:20:47.109Z,10
2019-03-02T06:21:56.797Z,10
2019-03-02T06:23:06.749Z,10
2019-03-02T06:24:17.889Z,10
2019-03-02T06:25:30.742Z,10
2019-03-02T06:26:42.781Z,10
2019-03-02T06:27:56.261Z,10
2019-03-02T06:29:07.461Z,10
2019-03-02T06:30:18.242Z,10
2019-03-02T06:31:28.699Z,10
2019-03-02T06:32:40.491Z,10
2019-03-02T06:33:53.551Z,10
2019-03-02T06:35:05.360Z,10
2019-03-02T06:36:18.299Z,15
2019-03-02T06:37:29.656Z,15
2019-03-02T06:38:41.581Z,15
2019-03-02T06:39:54.800Z,15
2019-03-02T06:41:07.666Z,15
2019-03-02T06:42:19.603Z,15
2019-03-02T06:43:31.379Z,15
2019-03-02T06:44:43.869Z,15
2019-03-02T06:45:53.921Z,15
2019-03-02T06:47:05.786Z,15
2019-03-02T06:48:19.081Z,15
2019-03-02T06:49:30.476Z,20
2019-03-02T06:50:42.663Z,20
2019-03-02T06:51:55.265Z,20
2019-03-02T06:53:08.468Z,20
2019-03-02T06:54:24.395Z,20
2019-03-02T06:55:35.012Z,20
2019-03-02T06:56:55.002Z,20
2019-03-02T06:58:07.303Z,20
2019-03-02T06:59:17.242Z,20
2019-03-02T07:00:26.684Z,20
2019-03-02T07:01:36.630Z,20
2019-03-02T07:02:46.547Z,25
2019-03-02T07:03:56.498Z,25
2019-03-02T07:05:07.540Z,25
2019-03-02T07:06:18.936Z,30
2019-03-02T07:07:31.484Z,30
2019-03-02T07:08:43.556Z,30
2019-03-02T07:09:54.969Z,30
2019-03-02T07:11:07.554Z,30
2019-03-02T07:12:19.097Z,30
2019-03-02T07:13:31.591Z,30
2019-03-02T07:14:41.675Z,30
2019-03-02T07:15:54.051Z,30
2019-03-02T07:17:05.551Z,30
2019-03-02T07:18:17.423Z,35
2019-03-02T07:19:27.355Z,35
2019-03-02T07:20:37.791Z,35
2019-03-02T07:21:51.089Z,35
2019-03-02T07:23:01.776Z,35
2019-03-02T07:24:11.713Z,40
2019-03-02T07:25:21.896Z,45
2019-03-02T07:26:31.836Z,45
2019-03-02T07:27:41.779Z,50
2019-03-02T07:28:52.247Z,50
2019-03-02T07:30:03.297Z,50
2019-03-02T07:31:13.232Z,50
2019-03-02T07:32:23.219Z,50
2019-03-02T07:33:32.659Z,55
2019-03-02T07:34:46.227Z,55
2019-03-02T07:36:00.461Z,60
2019-03-02T07:37:13.989Z,60
2019-03-02T07:38:27.704Z,60
2019-03-02T07:39:43.689Z,60
2019-03-02T07:40:54.910Z,60
2019-03-02T07:42:07.597Z,65
2019-03-02T07:43:19.390Z,65
2019-03-02T07:44:31.643Z,65
2019-03-02T07:45:44.383Z,70
2019-03-02T07:46:57.639Z,70
2019-03-02T07:48:09.601Z,70
2019-03-02T07:49:22.653Z,70
2019-03-02T07:50:36.930Z,70
2019-03-02T07:51:48.829Z,70
2019-03-02T07:52:59.974Z,65
2019-03-02T07:54:13.238Z,65
2019-03-02T07:55:27.327Z,70
2019-03-02T07:56:39.713Z,70
2019-03-02T07:57:51.043Z,75
2019-03-02T07:59:02.102Z,75
2019-03-02T08:00:14.910Z,75
2019-03-02T08:01:26.302Z,75
2019-03-02T08:02:39.259Z,75
2019-03-02T08:03:49.205Z,75
2019-03-02T08:05:00.068Z,75
2019-03-02T08:06:10.942Z,80
2019-03-02T08:07:20.636Z,80
2019-03-02T08:08:29.834Z,85
2019-03-02T08:09:39.272Z,90
2019-03-02T08:10:49.440Z,85
2019-03-02T08:12:00.353Z,90
2019-03-02T08:13:10.993Z,95
2019-03-02T08:14:23.355Z,100
2019-03-02T08:15:34.168Z,100
2019-03-02T08:16:47.316Z,100
2019-03-02T08:17:58.832Z,95
2019-03-02T08:19:10.897Z,100
2019-03-02T08:20:24.353Z,100
2019-03-02T08:21:38.371Z,100
2019-03-02T08:22:51.130Z,100
2019-03-02T08:24:01.061Z,100
2019-03-02T08:25:11.012Z,100
2019-03-02T08:26:22.517Z,105
2019-03-02T08:27:37.122Z,105
2019-03-02T08:28:50.974Z,105
2019-03-02T08:30:04.421Z,105
2019-03-02T08:31:16.206Z,105
2019-03-02T08:32:28.750Z,105
2019-03-02T08:33:50.394Z,105
2019-03-02T08:34:59.854Z,105
2019-03-02T08:36:13.007Z,105
2019-03-02T08:37:29.782Z,100
2019-03-02T08:38:40.503Z,95
2019-03-02T08:39:53.939Z,95
2019-03-02T08:41:07.689Z,95
2019-03-02T08:42:19.978Z,95
2019-03-02T08:43:29.675Z,95
2019-03-02T08:44:39.864Z,100
2019-03-02T08:45:49.310Z,100
2019-03-02T08:46:59.268Z,100
2019-03-02T08:48:09.414Z,105
2019-03-02T08:49:19.378Z,105
2019-03-02T08:50:29.098Z,105
2019-03-02T08:51:39.053Z,105
2019-03-02T08:52:48.755Z,105
2019-03-02T08:53:58.454Z,105
2019-03-02T08:55:08.386Z,105
2019-03-02T08:56:21.222Z,105
2019-03-02T08:57:32.850Z,110
2019-03-02T08:58:42.790Z,115
2019-03-02T08:59:52.492Z,115
2019-03-02T09:01:02.182Z,120
2019-03-02T09:02:12.186Z,125
2019-03-02T09:03:22.133Z,125
2019-03-02T09:04:33.044Z,125
2019-03-02T09:06:00.384Z,120
2019-03-02T09:07:13.983Z,115
2019-03-02T09:08:23.708Z,110
2019-03-02T09:09:33.656Z,110
2019-03-02T09:10:45.779Z,110
2019-03-02T09:11:55.940Z,110
2019-03-02T09:13:09.135Z,110
2019-03-02T09:14:21.639Z,115
2019-03-02T09:15:37.125Z,120
2019-03-02T09:16:49.656Z,125
2019-03-02T09:18:05.072Z,125
2019-03-02T09:19:16.753Z,125
2019-03-02T09:20:26.918Z,130
2019-03-02T09:21:36.867Z,125
2019-03-02T09:22:46.552Z,120
2019-03-02T09:23:58.885Z,120
2019-03-02T09:25:08.617Z,115
2019-03-02T09:26:19.793Z,115
2019-03-02T09:27:30.230Z,115
2019-03-02T09:28:40.173Z,115
2019-03-02T09:29:51.466Z,120
2019-03-02T09:31:06.468Z,125
2019-03-02T09:32:19.062Z,120
2019-03-02T09:33:34.452Z,120
2019-03-02T09:34:49.501Z,125
2019-03-02T09:36:04.572Z,130
2019-03-02T09:37:16.779Z,130
2019-03-02T09:38:30.575Z,130
2019-03-02T09:39:44.599Z,125
2019-03-02T09:40:56.330Z,120
2019-03-02T09:42:08.787Z,120
2019-03-02T09:43:21.129Z,120
2019-03-02T09:44:32.710Z,120
2019-03-02T09:45:44.737Z,120
2019-03-02T09:46:54.937Z,120
2019-03-02T09:48:04.630Z,120
2019-03-02T09:49:16.889Z,125
2019-03-02T09:50:28.650Z,125
2019-03-02T09:51:38.591Z,130
2019-03-02T09:52:50.569Z,130
2019-03-02T09:54:00.522Z,135
2019-03-02T09:55:10.474Z,135
2019-03-02T09:56:20.909Z,135
2019-03-02T09:57:32.274Z,135
2019-03-02T09:58:41.728Z,140
2019-03-02T09:59:54.991Z,140
2019-03-02T10:01:11.743Z,140
2019-03-02T10:02:24.069Z,135
2019-03-02T10:03:36.960Z,130
2019-03-02T10:04:48.989Z,125
2019-03-02T10:05:59.580Z,125
2019-03-02T10:07:11.706Z,115
2019-03-02T10:08:23.013Z,120
2019-03-02T10:09:36.247Z,110
2019-03-02T10:10:46.201Z,110
2019-03-02T10:11:55.656Z,115
2019-03-02T10:13:05.355Z,115
2019-03-02T10:14:15.305Z,115
2019-03-02T10:15:26.396Z,115
2019-03-02T10:16:35.869Z,120
2019-03-02T10:17:47.708Z,120
2019-03-02T10:18:59.476Z,120
2019-03-02T10:20:14.106Z,120
2019-03-02T10:21:23.799Z,125
2019-03-02T10:22:35.240Z,130
2019-03-02T10:23:48.752Z,135
2019-03-02T10:25:00.575Z,135
2019-03-02T10:26:14.540Z,140
2019-03-02T10:27:28.304Z,145
2019-03-02T10:28:40.670Z,150
2019-03-02T10:29:55.333Z,155
2019-03-02T10:31:08.591Z,165
2019-03-02T10:32:19.592Z,165
2019-03-02T10:33:32.106Z,165
2019-03-02T10:34:46.917Z,165
2019-03-02T10:36:00.585Z,165
2019-03-02T10:37:14.534Z,160
2019-03-02T10:38:28.660Z,165
2019-03-02T10:39:42.367Z,165
2019-03-02T10:40:54.118Z,170
2019-03-02T10:42:07.787Z,175
2019-03-02T10:43:20.102Z,170
2019-03-02T10:44:30.680Z,165
2019-03-02T10:45:40.675Z,165
2019-03-02T10:46:50.657Z,155
2019-03-02T10:48:01.366Z,155
2019-03-02T10:49:16.458Z,155
2019-03-02T10:50:30.361Z,155
2019-03-02T10:51:44.765Z,150
2019-03-02T10:52:56.274Z,150
2019-03-02T10:54:09.315Z,150
2019-03-02T10:55:22.579Z,150
2019-03-02T10:56:34.105Z,150
2019-03-02T10:57:44.051Z,145
2019-03-02T10:58:53.741Z,150
2019-03-02T11:00:03.723Z,155
2019-03-02T11:01:16.906Z,165
2019-03-02T11:02:30.675Z,160
2019-03-02T11:03:41.070Z,155
2019-03-02T11:04:53.634Z,155
2019-03-02T11:06:07.243Z,155
2019-03-02T11:07:19.890Z,155
2019-03-02T11:08:33.548Z,155
2019-03-02T11:09:46.948Z,155
2019-03-02T11:10:59.334Z,155
2019-03-02T11:12:13.769Z,155
2019-03-02T11:13:26.646Z,160
2019-03-02T11:14:41.155Z,165
2019-03-02T11:15:54.821Z,165
2019-03-02T11:17:06.382Z,165
2019-03-02T11:18:16.372Z,165
2019-03-02T11:19:26.326Z,160
2019-03-02T11:20:36.014Z,155
2019-03-02T11:21:45.696Z,155
2019-03-02T11:22:55.130Z,155
2019-03-02T11:24:07.172Z,160
2019-03-02T11:25:17.118Z,165
2019-03-02T11:26:27.076Z,165
2019-03-02T11:27:37.010Z,165
2019-03-02T11:28:46.708Z,165
2019-03-02T11:30:00.720Z,170
2019-03-02T11:31:10.678Z,175
2019-03-02T11:32:25.072Z,175
2019-03-02T11:33:38.320Z,175
2019-03-02T11:34:48.267Z,175
2019-03-02T11:35:58.213Z,175
2019-03-02T11:37:08.162Z,180
2019-03-02T11:38:18.117Z,180
2019-03-02T11:39:27.829Z,180
2019-03-02T11:40:40.133Z,180
2019-03-02T11:41:50.070Z,180
2019-03-02T11:42:59.769Z,180
2019-03-02T11:44:11.669Z,180
2019-03-02T11:45:21.793Z,190
2019-03-02T11:46:31.757Z,200
2019-03-02T11:47:44.810Z,205
2019-03-02T11:49:03.915Z,210
2019-03-02T11:50:16.978Z,210
2019-03-02T11:51:29.552Z,215
2019-03-02T11:52:43.431Z,215
2019-03-02T11:53:56.984Z,220
2019-03-02T11:55:13.472Z,225
2019-03-02T11:56:34.654Z,225
2019-03-02T11:57:44.591Z,230
2019-03-02T11:58:54.541Z,230
2019-03-02T12:00:06.916Z,230
2019-03-02T12:01:16.860Z,235
2019-03-02T12:02:31.097Z,230
2019-03-02T12:03:43.816Z,235
2019-03-02T12:04:56.922Z,245
2019-03-02T12:06:12.698Z,255
2019-03-02T12:07:22.656Z,260
2019-03-02T12:08:33.084Z,265
2019-03-02T12:09:42.522Z,270
2019-03-02T12:10:52.469Z,275
2019-03-02T12:12:02.167Z,275
2019-03-02T12:13:13.346Z,275
2019-03-02T12:14:23.333Z,280
2019-03-02T12:15:34.552Z,280
2019-03-02T12:16:45.465Z,280
2019-03-02T12:17:57.786Z,275
2019-03-02T12:19:10.012Z,265
2019-03-02T12:20:21.547Z,255
2019-03-02T12:21:31.740Z,245
2019-03-02T12:22:44.025Z,240
2019-03-02T12:23:53.245Z,235
2019-03-02T12:25:05.681Z,215
2019-03-02T12:26:18.269Z,195
2019-03-02T12:27:31.700Z,185
2019-03-02T12:28:44.979Z,180
2019-03-02T12:29:56.419Z,180
2019-03-02T12:31:06.378Z,180
2019-03-02T12:32:17.236Z,175
2019-03-02T12:33:30.342Z,170
2019-03-02T12:34:43.951Z,175
2019-03-02T12:35:53.921Z,180
2019-03-02T12:37:04.123Z,195
2019-03-02T12:38:20.017Z,205
2019-03-02T12:39:33.633Z,205
2019-03-02T12:40:47.194Z,205
2019-03-02T12:41:59.937Z,200
2019-03-02T12:43:14.779Z,200
2019-03-02T12:44:28.645Z,200
2019-03-02T12:45:41.087Z,200
2019-03-02T12:46:59.211Z,210
2019-03-02T12:48:09.839Z,215
2019-03-02T12:49:20.715Z,225
2019-03-02T12:50:33.045Z,225
2019-03-02T12:51:46.747Z,220
2019-03-02T12:52:59.031Z,220
2019-03-02T12:54:12.192Z,225
2019-03-02T12:55:25.567Z,230
2019-03-02T12:56:41.933Z,240
2019-03-02T12:57:55.148Z,250
2019-03-02T12:59:11.165Z,250
2019-03-02T13:00:21.113Z,250
2019-03-02T13:01:33.849Z,250
2019-03-02T13:02:47.878Z,250
2019-03-02T13:03:57.743Z,250
2019-03-02T13:05:07.489Z,245
2019-03-02T13:06:17.459Z,235
2019-03-02T13:07:27.151Z,230
2019-03-02T13:08:39.673Z,230
2019-03-02T13:09:50.558Z,235
2019-03-02T13:11:03.128Z,240
2019-03-02T13:12:17.149Z,240
2019-03-02T13:13:30.400Z,250
2019-03-02T13:14:43.622Z,255
2019-03-02T13:15:56.822Z,270
2019-03-02T13:17:10.861Z,285
2019-03-02T13:18:23.501Z,285
2019-03-02T13:19:36.172Z,270
2019-03-02T13:20:48.963Z,245
2019-03-02T13:22:01.235Z,240
2019-03-02T13:23:13.915Z,265
2019-03-02T13:24:27.493Z,280
2019-03-02T13:25:41.579Z,285
2019-03-02T13:26:55.770Z,280
2019-03-02T13:28:09.953Z,265
2019-03-02T13:29:23.660Z,260
2019-03-02T13:30:36.828Z,280
2019-03-02T13:31:51.022Z,275
2019-03-02T13:33:03.266Z,270
2019-03-02T13:34:16.241Z,260
2019-03-02T13:35:30.670Z,250
2019-03-02T13:36:43.903Z,240
2019-03-02T13:38:00.780Z,215
2019-03-02T13:39:23.017Z,200
2019-03-02T13:40:38.575Z,185
2019-03-02T13:41:51.338Z,175
2019-03-02T13:43:07.061Z,165
2019-03-02T13:44:16.996Z,165
2019-03-02T13:45:28.796Z,160
2019-03-02T13:46:41.924Z,155
2019-03-02T13:47:56.054Z,150
2019-03-02T13:49:09.028Z,140
2019-03-02T13:50:22.763Z,135
2019-03-02T13:51:39.849Z,135
2019-03-02T13:52:53.041Z,130
2019-03-02T13:54:09.942Z,125
2019-03-02T13:55:23.193Z,120
2019-03-02T13:56:37.287Z,125
2019-03-02T13:57:49.223Z,125
2019-03-02T13:59:02.137Z,135
2019-03-02T14:00:15.146Z,140
2019-03-02T14:01:30.222Z,150
2019-03-02T14:02:43.868Z,155
2019-03-02T14:03:58.416Z,160
2019-03-02T14:05:14.575Z,155
2019-03-02T14:06:28.020Z,150
2019-03-02T14:07:41.129Z,145
2019-03-02T14:08:53.131Z,140
2019-03-02T14:10:03.092Z,135
2019-03-02T14:11:13.057Z,130
2019-03-02T14:12:27.174Z,130
2019-03-02T14:13:39.946Z,135
2019-03-02T14:14:52.103Z,140
2019-03-02T14:16:06.817Z,135
2019-03-02T14:17:19.103Z,130
2019-03-02T14:18:33.465Z,130
2019-03-02T14:19:50.918Z,140
2019-03-02T14:21:04.768Z,150
2019-03-02T14:22:17.446Z,155
2019-03-02T14:23:34.741Z,155
2019-03-02T14:24:53.795Z,165
2019-03-02T14:26:07.290Z,180
2019-03-02T14:27:17.255Z,200
2019-03-02T14:28:30.384Z,210
2019-03-02T14:29:42.873Z,210
2019-03-02T14:30:57.062Z,210
2019-03-02T14:32:10.076Z,205
2019-03-02T14:33:19.726Z,200
2019-03-02T14:34:29.674Z,205
2019-03-02T14:35:42.060Z,205
2019-03-02T14:36:51.531Z,200
2019-03-02T14:38:01.244Z,180
2019-03-02T14:39:12.072Z,165
2019-03-02T14:40:24.266Z,170
2019-03-02T14:41:38.462Z,170
2019-03-02T14:42:50.418Z,165
2019-03-02T14:44:04.490Z,170
2019-03-02T14:45:17.053Z,170
2019-03-02T14:46:30.638Z,180
2019-03-02T14:47:43.616Z,190
2019-03-02T14:48:56.604Z,180
2019-03-02T14:50:13.080Z,175
2019-03-02T14:51:26.668Z,170
2019-03-02T14:52:40.382Z,165
2019-03-02T14:53:52.507Z,160
2019-03-02T14:55:03.910Z,165
2019-03-02T14:56:18.443Z,170
2019-03-02T14:57:31.960Z,185
2019-03-02T14:58:44.873Z,220
2019-03-02T14:59:57.598Z,240
2019-03-02T15:01:11.603Z,255
2019-03-02T15:02:23.886Z,235
2019-03-02T15:03:38.823Z,235
2019-03-02T15:04:52.286Z,230
2019-03-02T15:06:14.680Z,225
2019-03-02T15:07:29.391Z,215
2019-03-02T15:08:44.616Z,210
2019-03-02T15:09:56.674Z,200
2019-03-02T15:11:10.554Z,175
2019-03-02T15:12:23.351Z,160
2019-03-02T15:13:36.798Z,145
2019-03-02T15:14:49.801Z,130
2019-03-02T15:16:03.730Z,110
2019-03-02T15:17:16.966Z,110
2019-03-02T15:18:35.230Z,110
2019-03-02T15:20:03.242Z,100
2019-03-02T15:21:16.540Z,100
2019-03-02T15:22:31.536Z,95
2019-03-02T15:23:46.694Z,100
2019-03-02T15:25:00.633Z,100
2019-03-02T15:26:13.634Z,95
2019-03-02T15:27:29.324Z,90
2019-03-02T15:28:45.009Z,85
2019-03-02T15:29:57.601Z,85
2019-03-02T15:31:13.086Z,80
2019-03-02T15:32:27.456Z,75
2019-03-02T15:33:42.582Z,75
2019-03-02T15:35:02.926Z,80
2019-03-02T15:36:16.063Z,80
2019-03-02T15:37:29.127Z,85
2019-03-02T15:38:42.688Z,85
2019-03-02T15:39:58.492Z,85
2019-03-02T15:41:11.888Z,95
2019-03-02T15:42:26.126Z,105
2019-03-02T15:43:39.621Z,110
2019-03-02T15:44:53.688Z,110
2019-03-02T15:46:07.870Z,105
2019-03-02T15:47:21.179Z,100
2019-03-02T15:48:34.425Z,95
2019-03-02T15:49:47.533Z,95
2019-03-02T15:51:01.473Z,95
2019-03-02T15:52:15.112Z,90
2019-03-02T15:53:27.719Z,85
2019-03-02T15:54:41.304Z,80
2019-03-02T15:55:57.256Z,80
2019-03-02T15:57:14.093Z,75
2019-03-02T15:58:28.161Z,70
2019-03-02T15:59:45.132Z,60
2019-03-02T16:00:59.556Z,55
2019-03-02T16:02:11.585Z,55
2019-03-02T16:03:26.578Z,55
2019-03-02T16:04:43.963Z,50
2019-03-02T16:05:59.662Z,50
2019-03-02T16:07:11.710Z,50
2019-03-02T16:08:25.251Z,45
2019-03-02T16:09:40.312Z,40
2019-03-02T16:10:53.844Z,40
2019-03-02T16:12:08.241Z,35
2019-03-02T16:13:24.450Z,35
2019-03-02T16:14:38.867Z,35
2019-03-02T16:15:54.586Z,30
2019-03-02T16:17:07.961Z,30
2019-03-02T16:18:23.610Z,25
2019-03-02T16:19:38.341Z,25
2019-03-02T16:20:51.428Z,25
2019-03-02T16:22:04.502Z,20
2019-03-02T16:23:16.764Z,20
2019-03-02T16:24:31.614Z,15
2019-03-02T16:25:44.895Z,15
2019-03-02T16:26:59.777Z,15
2019-03-02T16:28:15.089Z,15
2019-03-02T16:29:28.752Z,15
2019-03-02T16:30:43.908Z,10
2019-03-02T16:31:54.556Z,10
2019-03-02T16:33:05.041Z,10
2019-03-02T16:34:19.747Z,10
2019-03-02T16:35:39.890Z,10
2019-03-02T16:36:50.792Z,10
2019-03-02T16:38:03.398Z,10
2019-03-02T16:39:17.686Z,10
2019-03-02T16:40:31.927Z,10
2019-03-02T16:41:43.837Z,5
2019-03-02T16:42:58.222Z,5
2019-03-02T16:44:10.016Z,5
2019-03-02T16:45:19.457Z,5
2019-03-02T16:46:29.165Z,5
2019-03-02T16:47:38.853Z,0
2019-03-02T16:48:48.549Z,0
2019-03-02T16:49:58.498Z,0
2019-03-02T16:51:07.939Z,0
2019-03-02T16:52:19.690Z,0
2019-03-02T16:53:31.923Z,0
2019-03-02T16:54:42.880Z,0
2019-03-02T16:55:54.705Z,0
2019-03-02T16:57:07.061Z,0
2019-03-02T16:58:20.591Z,0
2019-03-02T16:59:34.712Z,0
2019-03-02T17:00:51.066Z,0
2019-03-02T17:02:06.284Z,0
2019-03-02T17:03:19.027Z,0
2019-03-02T17:04:29.171Z,0
2019-03-02T17:05:41.531Z,0
2019-03-02T17:06:53.673Z,0
2019-03-02T17:08:07.508Z,0
2019-03-02T17:09:21.251Z,0
2019-03-02T17:10:32.955Z,0
2019-03-02T17:11:44.902Z,0
2019-03-02T17:12:58.871Z,0
2019-03-02T17:14:15.171Z,0
2019-03-02T17:15:29.878Z,0